createdAt,value
2022-10-11T10:41:46.022Z,11.2
2022-10-11T10:46:52.161Z,12.1
2022-10-11T10:51:51.826Z,13.1
2022-10-11T10:56:51.800Z,13.2
2022-10-11T11:01:52.056Z,12.1
2022-10-11T11:06:51.885Z,9.4
2022-10-11T11:11:51.976Z,12.7
2022-10-11T11:16:52.311Z,8.8
2022-10-11T11:21:51.774Z,9.0
2022-10-11T11:26:51.866Z,16.2
2022-10-11T11:31:51.962Z,9.7
2022-10-11T11:36:51.882Z,10.8
2022-10-11T11:41:51.868Z,9.5
2022-10-11T11:46:51.975Z,10.7
2022-10-11T11:51:51.753Z,8.4
2022-10-11T11:56:51.722Z,7.1
2022-10-11T12:01:51.985Z,11.2
2022-10-11T12:07:14.597Z,8.9
2022-10-11T12:11:51.813Z,8.9
2022-10-11T12:16:51.759Z,6.4
2022-10-11T12:21:52.021Z,6.5
2022-10-11T12:26:51.713Z,6.2
2022-10-11T12:31:51.820Z,6.8
2022-10-11T12:36:51.919Z,9.7
2022-10-11T12:41:51.749Z,6.1
2022-10-11T12:46:51.789Z,10.6
2022-10-11T12:51:56.833Z,5.6
2022-10-11T12:56:51.611Z,8.1
2022-10-11T13:01:51.655Z,7.5
2022-10-11T13:06:51.957Z,6.9
2022-10-11T13:11:51.669Z,12.2
2022-10-11T13:16:51.720Z,9.6
2022-10-11T13:21:51.832Z,8.7
2022-10-11T13:26:51.666Z,6.0
2022-10-11T13:31:51.917Z,5.9
2022-10-11T13:36:51.906Z,16.1
2022-10-11T13:41:51.597Z,11.4
2022-10-11T13:46:51.653Z,10.0
2022-10-11T13:51:52.607Z,6.1
2022-10-11T13:56:51.582Z,5.9
2022-10-11T14:01:51.684Z,5.3
2022-10-11T14:06:52.085Z,4.2
2022-10-11T14:11:51.672Z,5.5
2022-10-11T14:21:52.718Z,5.7
2022-10-11T14:26:51.517Z,5.9
2022-10-11T14:31:51.758Z,6.7
2022-10-11T14:36:51.477Z,6.0
2022-10-11T14:41:51.447Z,5.1
2022-10-11T14:46:54.107Z,5.7
2022-10-11T14:51:51.477Z,5.0
2022-10-11T14:56:51.460Z,10.5
2022-10-11T15:01:51.746Z,4.9
2022-10-11T15:06:51.507Z,9.5
2022-10-11T15:11:51.450Z,7.8
2022-10-11T15:16:51.388Z,8.3
2022-10-11T15:21:51.614Z,7.9
2022-10-11T15:26:51.438Z,8.1
2022-10-11T15:31:51.398Z,8.4
2022-10-11T15:36:51.807Z,6.6
2022-10-11T15:41:51.411Z,6.2
2022-10-11T15:46:51.387Z,6.3
2022-10-11T15:51:51.374Z,7.3
2022-10-11T15:56:51.350Z,6.4
2022-10-11T16:01:51.569Z,6.8
2022-10-11T16:06:51.327Z,7.8
2022-10-11T16:11:51.371Z,5.8
2022-10-11T16:16:51.472Z,7.4
2022-10-11T16:21:51.296Z,8.7
2022-10-11T16:26:51.303Z,10.9
2022-10-11T16:31:51.434Z,7.7
2022-10-11T16:36:51.308Z,8.7
2022-10-11T16:41:51.278Z,10.4
2022-10-11T16:46:51.428Z,7.6
2022-10-11T16:51:51.338Z,9.1
2022-10-11T16:56:51.210Z,8.3
2022-10-11T17:01:51.485Z,12.1
2022-10-11T17:06:51.201Z,11.7
2022-10-11T17:11:51.240Z,11.0
2022-10-11T17:16:51.413Z,11.8
2022-10-11T17:21:51.207Z,12.9
2022-10-11T17:26:51.213Z,14.2
2022-10-11T17:31:51.337Z,22.8
2022-10-11T17:36:51.222Z,30.0
2022-10-11T17:41:51.442Z,24.5
2022-10-11T17:46:51.279Z,26.5
2022-10-11T17:51:51.225Z,45.1
2022-10-11T17:56:51.173Z,27.5
2022-10-11T18:01:51.210Z,38.9
2022-10-11T18:06:51.151Z,35.5
2022-10-11T18:11:51.143Z,42.9
2022-10-11T18:16:51.240Z,26.8
2022-10-11T18:21:51.416Z,28.1
2022-10-11T18:26:51.086Z,35.2
2022-10-11T18:31:51.348Z,27.6
2022-10-11T18:36:51.043Z,27.1
2022-10-11T18:41:51.038Z,31.3
2022-10-11T18:46:57.411Z,50.7
2022-10-11T18:51:57.162Z,67.1
2022-10-11T18:56:57.343Z,86.1
2022-10-11T19:01:57.221Z,87.8
2022-10-11T19:06:57.124Z,61.6
2022-10-11T19:11:57.093Z,43.8
2022-10-11T19:16:57.878Z,36.8
2022-10-11T19:21:57.175Z,35.2
2022-10-11T19:27:02.049Z,30.9
2022-10-11T19:31:57.051Z,31.9
2022-10-11T19:36:57.210Z,39.7
2022-10-11T19:41:57.245Z,40.2
2022-10-11T19:47:05.313Z,46.1
2022-10-11T19:52:03.088Z,48.2
2022-10-11T19:57:02.887Z,47.1
2022-10-11T20:02:02.925Z,50.0
2022-10-11T20:07:02.971Z,49.4
2022-10-11T20:12:03.061Z,54.2
2022-10-11T20:17:02.871Z,54.1
2022-10-11T20:22:02.904Z,75.3
2022-10-11T20:32:02.826Z,86.9
2022-10-11T20:37:02.920Z,62.4
2022-10-11T20:42:03.188Z,58.6
2022-10-11T20:47:04.193Z,59.8
2022-10-11T20:52:02.902Z,51.8
2022-10-11T20:57:03.149Z,72.7
2022-10-11T21:02:02.909Z,74.6
2022-10-11T21:07:03.067Z,95.2
2022-10-11T21:12:02.818Z,92.9
2022-10-11T21:17:02.820Z,67.7
2022-10-11T21:22:02.867Z,69.6
2022-10-11T21:27:02.814Z,73.7
2022-10-11T21:32:02.763Z,69.8
2022-10-11T21:37:02.883Z,82.0
2022-10-11T21:42:02.737Z,77.0
2022-10-11T21:47:06.984Z,62.5
2022-10-11T21:52:03.468Z,55.6
2022-10-11T21:57:02.971Z,39.8
2022-10-11T22:02:02.765Z,50.9
2022-10-11T22:07:03.923Z,54.1
2022-10-11T22:12:02.615Z,46.7
2022-10-11T22:17:02.680Z,42.6
2022-10-11T22:22:02.744Z,38.8
2022-10-11T22:27:02.880Z,32.0
2022-10-11T22:32:02.585Z,28.8
2022-10-11T22:37:02.823Z,38.0
2022-10-11T22:42:02.613Z,42.9
2022-10-11T22:47:02.683Z,48.1
2022-10-11T22:52:02.759Z,46.2
2022-10-11T22:57:02.633Z,43.2
2022-10-11T23:02:02.655Z,51.1
2022-10-11T23:07:05.104Z,46.9
2022-10-11T23:12:02.545Z,46.5
2022-10-11T23:17:02.699Z,59.9
2022-10-11T23:22:02.773Z,62.4
2022-10-11T23:27:02.556Z,64.3
2022-10-11T23:32:02.557Z,60.0
2022-10-11T23:37:02.666Z,47.7
2022-10-11T23:42:02.523Z,47.7
2022-10-11T23:47:02.520Z,58.6
2022-10-11T23:52:02.597Z,59.1
2022-10-11T23:57:02.496Z,62.9
